Time,TemperatureF,DewpointF,PressureIn,WindDirection,WindDirectionDegrees,WindSpeedMPH,WindSpeedGustMPH,Humidity,HourlyPrecipIn,Conditions,Clouds,dailyrainin,SoftwareType,DateUTC
2013-05-13 00:01:00,48.5,30.2,30.05,West,263,0.0,0.0,49,0.00,NA,NA,0.00,WeatherLink_script,2013-05-13 04:01:00,
2013-05-13 00:02:00,48.4,30.1,30.05,West,263,0.1,1.0,49,0.00,NA,NA,0.00,WeatherLink_script,2013-05-13 04:02:00,
2013-05-13 00:03:00,48.4,30.2,30.05,West,264,0.3,2.0,49,0.00,NA,NA,0.00,WeatherLink_script,2013-05-13 04:03:00,
2013-05-13 00:04:00,48.4,30.2,30.05,West,264,0.3,2.0,49,0.00,NA,NA,0.00,WeatherLink_script,2013-05-13 04:04:00,
2013-05-13 00:08:00,48.4,29.6,30.05,West,264,0.0,0.0,48,0.00,NA,NA,0.00,WeatherLink_script,2013-05-13 04:08:00,
2013-05-13 00:13:00,48.3,30.5,30.05,West,264,0.1,1.0,50,0.00,NA,NA,0.00,WeatherLink_script,2013-05-13 04:13:00,
2013-05-13 00:18:00,48.2,29.9,30.05,West,263,0.7,2.0,49,0.00,NA,NA,0.00,WeatherLink_script,2013-05-13 04:18:00,
2013-05-13 00:23:00,48.2,29.9,30.05,West,263,1.1,2.0,49,0.00,NA,NA,0.00,WeatherLink_script,2013-05-13 04:23:00,
2013-05-13 00:28:00,48.2,29.9,30.05,West,263,0.4,1.0,49,0.00,NA,NA,0.00,WeatherLink_script,2013-05-13 04:28:00,
2013-05-13 00:33:00,48.1,29.9,30.05,West,264,0.0,0.0,49,0.00,NA,NA,0.00,WeatherLink_script,2013-05-13 04:33:00,
2013-05-13 00:38:00,48.3,29.5,30.05,WSW,251,2.3,4.0,48,0.00,NA,NA,0.00,WeatherLink_script,2013-05-13 04:38:00,
2013-05-13 00:43:00,48.3,30.0,30.05,West,260,0.0,0.0,49,0.00,NA,NA,0.00,WeatherLink_script,2013-05-13 04:43:00,
2013-05-13 00:49:00,48.3,29.5,30.05,West,259,0.3,1.0,48,0.00,NA,NA,0.00,WeatherLink_script,2013-05-13 04:49:00,
2013-05-13 00:54:00,48.2,30.4,30.05,West,259,0.5,1.0,50,0.00,NA,NA,0.00,WeatherLink_script,2013-05-13 04:54:00,
2013-05-13 00:59:00,48.2,30.4,30.05,West,260,0.0,0.0,50,0.00,NA,NA,0.00,WeatherLink_script,2013-05-13 04:59:00,
2013-05-13 01:04:00,48.0,29.8,30.05,West,260,0.1,1.0,49,0.00,NA,NA,0.00,WeatherLink_script,2013-05-13 05:04:00,
2013-05-13 01:09:00,47.8,30.1,30.04,West,260,0.0,0.0,50,0.00,NA,NA,0.00,WeatherLink_script,2013-05-13 05:09:00,
2013-05-13 01:14:00,47.8,29.6,30.04,West,260,0.2,1.0,49,0.00,NA,NA,0.00,WeatherLink_script,2013-05-13 05:14:00,
2013-05-13 01:19:00,47.8,29.0,30.05,West,260,0.0,0.0,48,0.00,NA,NA,0.00,WeatherLink_script,2013-05-13 05:19:00,
2013-05-13 01:24:00,47.7,29.5,30.05,West,260,0.0,0.0,49,0.00,NA,NA,0.00,WeatherLink_script,2013-05-13 05:24:00,
2013-05-13 01:29:00,47.5,31.7,30.05,West,259,0.0,0.0,54,0.00,NA,NA,0.00,WeatherLink_script,2013-05-13 05:29:00,
2013-05-13 01:34:00,47.4,30.2,30.04,West,262,0.4,3.0,51,0.00,NA,NA,0.00,WeatherLink_script,2013-05-13 05:34:00,
2013-05-13 01:39:00,47.2,31.0,30.04,WSW,247,1.5,3.0,53,0.00,NA,NA,0.00,WeatherLink_script,2013-05-13 05:39:00,
2013-05-13 01:44:00,47.4,30.2,30.04,North,354,0.9,3.0,51,0.00,NA,NA,0.00,WeatherLink_script,2013-05-13 05:44:00,
2013-05-13 01:49:00,47.6,31.7,30.05,NW,306,0.9,5.0,54,0.00,NA,NA,0.00,WeatherLink_script,2013-05-13 05:49:00,
2013-05-13 01:54:00,47.5,31.2,30.05,WNW,284,1.5,2.0,53,0.00,NA,NA,0.00,WeatherLink_script,2013-05-13 05:54:00,
2013-05-13 01:59:00,47.4,32.0,30.04,WSW,238,1.0,2.0,55,0.00,NA,NA,0.00,WeatherLink_script,2013-05-13 05:59:00,
2013-05-13 02:04:00,47.2,31.4,30.05,WSW,238,0.0,0.0,54,0.00,NA,NA,0.00,WeatherLink_script,2013-05-13 06:04:00,
2013-05-13 02:09:00,47.1,30.4,30.05,WSW,238,0.6,2.0,52,0.00,NA,NA,0.00,WeatherLink_script,2013-05-13 06:09:00,
2013-05-13 02:14:00,46.9,31.2,30.05,West,267,1.4,2.0,54,0.00,NA,NA,0.00,WeatherLink_script,2013-05-13 06:14:00,
2013-05-13 02:19:00,46.8,29.6,30.05,West,268,0.0,0.0,51,0.00,NA,NA,0.00,WeatherLink_script,2013-05-13 06:19:00,
2013-05-13 02:24:00,46.8,29.6,30.05,West,267,0.0,0.0,51,0.00,NA,NA,0.00,WeatherLink_script,2013-05-13 06:24:00,
2013-05-13 02:29:00,46.7,31.0,30.05,West,267,0.3,1.0,54,0.00,NA,NA,0.00,WeatherLink_script,2013-05-13 06:29:00,
2013-05-13 02:34:00,46.7,31.0,30.05,West,267,0.9,3.0,54,0.00,NA,NA,0.00,WeatherLink_script,2013-05-13 06:34:00,
2013-05-13 02:39:00,46.7,30.5,30.05,West,266,1.4,2.0,53,0.00,NA,NA,0.00,WeatherLink_script,2013-05-13 06:39:00,
2013-05-13 02:44:00,46.8,31.5,30.05,West,266,1.3,3.0,55,0.00,NA,NA,0.00,WeatherLink_script,2013-05-13 06:44:00,
2013-05-13 02:49:00,46.8,31.9,30.05,West,266,0.7,2.0,56,0.00,NA,NA,0.00,WeatherLink_script,2013-05-13 06:49:00,
2013-05-13 02:54:00,46.7,30.5,30.05,West,267,0.0,0.0,53,0.00,NA,NA,0.00,WeatherLink_script,2013-05-13 06:54:00,
2013-05-13 02:59:00,46.7,31.0,30.05,West,266,0.5,2.0,54,0.00,NA,NA,0.00,WeatherLink_script,2013-05-13 06:59:00,
2013-05-13 03:04:00,46.5,31.7,30.05,West,266,0.0,0.0,56,0.00,NA,NA,0.00,WeatherLink_script,2013-05-13 07:04:00,
2013-05-13 03:09:00,46.4,31.1,30.05,West,266,0.9,2.0,55,0.00,NA,NA,0.00,WeatherLink_script,2013-05-13 07:09:00,
2013-05-13 03:14:00,46.2,31.4,30.04,West,266,0.5,2.0,56,0.00,NA,NA,0.00,WeatherLink_script,2013-05-13 07:14:00,
2013-05-13 03:19:00,46.2,31.8,30.04,West,266,0.6,2.0,57,0.00,NA,NA,0.00,WeatherLink_script,2013-05-13 07:19:00,
2013-05-13 03:24:00,46.1,31.7,30.04,West,267,0.0,0.0,57,0.00,NA,NA,0.00,WeatherLink_script,2013-05-13 07:24:00,
2013-05-13 03:29:00,46.1,31.7,30.04,West,267,1.1,2.0,57,0.00,NA,NA,0.00,WeatherLink_script,2013-05-13 07:29:00,
2013-05-13 03:34:00,46.0,32.9,30.04,West,266,0.2,1.0,60,0.00,NA,NA,0.00,WeatherLink_script,2013-05-13 07:34:00,
2013-05-13 03:39:00,45.8,32.3,30.04,West,266,0.1,1.0,59,0.00,NA,NA,0.00,WeatherLink_script,2013-05-13 07:39:00,
2013-05-13 03:44:00,45.5,32.4,30.04,West,266,0.6,1.0,60,0.00,NA,NA,0.00,WeatherLink_script,2013-05-13 07:44:00,
2013-05-13 03:49:00,45.4,32.3,30.04,West,266,0.9,2.0,60,0.00,NA,NA,0.00,WeatherLink_script,2013-05-13 07:49:00,
2013-05-13 03:54:00,45.1,31.6,30.04,West,267,0.0,0.0,59,0.00,NA,NA,0.00,WeatherLink_script,2013-05-13 07:54:00,
2013-05-13 03:59:00,44.8,31.8,30.04,West,266,0.8,2.0,60,0.00,NA,NA,0.00,WeatherLink_script,2013-05-13 07:59:00,
2013-05-13 04:04:00,44.6,31.2,30.04,West,266,0.4,1.0,59,0.00,NA,NA,0.00,WeatherLink_script,2013-05-13 08:04:00,
2013-05-13 04:09:00,44.4,31.8,30.04,West,267,0.1,1.0,61,0.00,NA,NA,0.00,WeatherLink_script,2013-05-13 08:09:00,
2013-05-13 04:14:00,44.4,31.4,30.05,West,261,0.3,1.0,60,0.00,NA,NA,0.00,WeatherLink_script,2013-05-13 08:14:00,
2013-05-13 04:19:00,44.3,31.7,30.04,West,262,0.5,1.0,61,0.00,NA,NA,0.00,WeatherLink_script,2013-05-13 08:19:00,
2013-05-13 04:24:00,44.3,31.3,30.05,West,263,0.1,1.0,60,0.00,NA,NA,0.00,WeatherLink_script,2013-05-13 08:24:00,
2013-05-13 04:29:00,44.1,31.1,30.04,West,262,1.8,3.0,60,0.00,NA,NA,0.00,WeatherLink_script,2013-05-13 08:29:00,
2013-05-13 04:34:00,44.2,31.6,30.05,West,262,0.7,3.0,61,0.00,NA,NA,0.00,WeatherLink_script,2013-05-13 08:34:00,
2013-05-13 04:39:00,44.1,31.1,30.05,West,262,0.8,2.0,60,0.00,NA,NA,0.00,WeatherLink_script,2013-05-13 08:39:00,
2013-05-13 04:44:00,44.1,31.1,30.05,West,262,0.1,1.0,60,0.00,NA,NA,0.00,WeatherLink_script,2013-05-13 08:44:00,
2013-05-13 04:49:00,44.0,31.0,30.05,SE,134,0.5,2.0,60,0.00,NA,NA,0.00,WeatherLink_script,2013-05-13 08:49:00,
2013-05-13 04:54:00,44.0,31.0,30.05,SE,128,0.3,1.0,60,0.00,NA,NA,0.00,WeatherLink_script,2013-05-13 08:54:00,
2013-05-13 04:59:00,44.0,31.0,30.06,SSE,165,0.7,1.0,60,0.00,NA,NA,0.00,WeatherLink_script,2013-05-13 08:59:00,
2013-05-13 05:04:00,44.0,31.0,30.06,SSW,193,1.1,3.0,60,0.00,NA,NA,0.00,WeatherLink_script,2013-05-13 09:04:00,
2013-05-13 05:09:00,44.0,30.6,30.06,SSW,193,0.2,1.0,59,0.00,NA,NA,0.00,WeatherLink_script,2013-05-13 09:09:00,
2013-05-13 05:14:00,44.0,30.6,30.06,SSW,192,0.0,0.0,59,0.00,NA,NA,0.00,WeatherLink_script,2013-05-13 09:14:00,
2013-05-13 05:19:00,44.0,31.0,30.07,SSW,192,0.0,0.0,60,0.00,NA,NA,0.00,WeatherLink_script,2013-05-13 09:19:00,
2013-05-13 05:24:00,44.0,29.8,30.06,SSW,193,0.4,1.0,57,0.00,NA,NA,0.00,WeatherLink_script,2013-05-13 09:24:00,
2013-05-13 05:29:00,44.0,29.8,30.07,SSW,194,0.2,1.0,57,0.00,NA,NA,0.00,WeatherLink_script,2013-05-13 09:29:00,
2013-05-13 05:34:00,44.2,29.5,30.07,SSW,199,0.2,1.0,56,0.00,NA,NA,0.00,WeatherLink_script,2013-05-13 09:34:00,
2013-05-13 05:39:00,44.2,29.5,30.07,SSW,199,0.0,0.0,56,0.00,NA,NA,0.00,WeatherLink_script,2013-05-13 09:39:00,
2013-05-13 05:44:00,44.1,29.4,30.07,SSW,199,0.0,0.0,56,0.00,NA,NA,0.00,WeatherLink_script,2013-05-13 09:44:00,
2013-05-13 05:49:00,44.0,29.3,30.07,SSW,199,0.0,0.0,56,0.00,NA,NA,0.00,WeatherLink_script,2013-05-13 09:49:00,
2013-05-13 05:54:00,44.0,29.3,30.07,SSW,199,0.0,0.0,56,0.00,NA,NA,0.00,WeatherLink_script,2013-05-13 09:54:00,
2013-05-13 05:59:00,43.9,29.7,30.07,SSW,199,0.0,0.0,57,0.00,NA,NA,0.00,WeatherLink_script,2013-05-13 09:59:00,
2013-05-13 06:04:00,43.7,29.5,30.07,SSW,199,0.0,0.0,57,0.00,NA,NA,0.00,WeatherLink_script,2013-05-13 10:04:00,
2013-05-13 06:09:00,43.7,29.5,30.07,SSW,199,0.0,0.0,57,0.00,NA,NA,0.00,WeatherLink_script,2013-05-13 10:09:00,
2013-05-13 06:14:00,43.7,29.5,30.07,SSW,199,0.2,2.0,57,0.00,NA,NA,0.00,WeatherLink_script,2013-05-13 10:14:00,
2013-05-13 06:19:00,43.7,29.5,30.07,SSW,199,0.5,2.0,57,0.00,NA,NA,0.00,WeatherLink_script,2013-05-13 10:19:00,
2013-05-13 06:24:00,43.9,29.6,30.07,SSW,199,0.0,0.0,57,0.00,NA,NA,0.00,WeatherLink_script,2013-05-13 10:24:00,
2013-05-13 06:29:00,43.9,29.2,30.08,SSW,198,0.3,1.0,56,0.00,NA,NA,0.00,WeatherLink_script,2013-05-13 10:29:00,
2013-05-13 06:34:00,44.0,29.8,30.08,SSW,199,0.0,0.0,57,0.00,NA,NA,0.00,WeatherLink_script,2013-05-13 10:34:00,
2013-05-13 06:39:00,44.0,30.2,30.08,SSW,199,0.1,1.0,58,0.00,NA,NA,0.00,WeatherLink_script,2013-05-13 10:39:00,
2013-05-13 06:44:00,44.1,30.3,30.08,SSW,199,0.3,2.0,58,0.00,NA,NA,0.00,WeatherLink_script,2013-05-13 10:44:00,
2013-05-13 06:49:00,44.3,30.5,30.08,SSW,199,0.5,2.0,58,0.00,NA,NA,0.00,WeatherLink_script,2013-05-13 10:49:00,
2013-05-13 06:54:00,44.3,30.9,30.08,SSW,199,0.1,1.0,59,0.00,NA,NA,0.00,WeatherLink_script,2013-05-13 10:54:00,
2013-05-13 06:59:00,44.6,31.2,30.08,SSW,199,0.3,1.0,59,0.00,NA,NA,0.00,WeatherLink_script,2013-05-13 10:59:00,
2013-05-13 07:04:00,44.6,30.7,30.08,SSW,199,0.3,1.0,58,0.00,NA,NA,0.00,WeatherLink_script,2013-05-13 11:04:00,
2013-05-13 07:09:00,44.7,31.3,30.09,SSW,199,0.3,1.0,59,0.00,NA,NA,0.00,WeatherLink_script,2013-05-13 11:09:00,
2013-05-13 07:14:00,44.9,32.3,30.09,SSW,199,0.2,1.0,61,0.00,NA,NA,0.00,WeatherLink_script,2013-05-13 11:14:00,
2013-05-13 07:19:00,45.1,32.5,30.09,SSW,199,0.0,0.0,61,0.00,NA,NA,0.00,WeatherLink_script,2013-05-13 11:19:00,
2013-05-13 07:24:00,45.2,33.0,30.09,SSW,199,0.5,2.0,62,0.00,NA,NA,0.00,WeatherLink_script,2013-05-13 11:24:00,
2013-05-13 07:29:00,45.4,32.7,30.09,SSW,199,0.3,2.0,61,0.00,NA,NA,0.00,WeatherLink_script,2013-05-13 11:29:00,
2013-05-13 07:34:00,45.5,33.2,30.09,SSW,198,0.3,1.0,62,0.00,NA,NA,0.00,WeatherLink_script,2013-05-13 11:34:00,
2013-05-13 07:39:00,45.7,34.2,30.09,SSW,199,0.6,2.0,64,0.00,NA,NA,0.00,WeatherLink_script,2013-05-13 11:39:00,
2013-05-13 07:44:00,45.9,34.1,30.09,SSW,199,0.3,2.0,63,0.00,NA,NA,0.00,WeatherLink_script,2013-05-13 11:44:00,
2013-05-13 07:49:00,46.1,34.6,30.10,SSW,199,0.9,2.0,64,0.00,NA,NA,0.00,WeatherLink_script,2013-05-13 11:49:00,
2013-05-13 07:54:00,46.4,34.5,30.10,SSW,199,0.4,1.0,63,0.00,NA,NA,0.00,WeatherLink_script,2013-05-13 11:54:00,
2013-05-13 07:59:00,46.7,35.2,30.10,SSW,199,0.2,2.0,64,0.00,NA,NA,0.00,WeatherLink_script,2013-05-13 11:59:00,
2013-05-13 08:04:00,47.0,35.0,30.10,SSW,199,0.9,2.0,63,0.00,NA,NA,0.00,WeatherLink_script,2013-05-13 12:04:00,
2013-05-13 08:09:00,47.4,34.6,30.10,SSW,201,0.2,1.0,61,0.00,NA,NA,0.00,WeatherLink_script,2013-05-13 12:09:00,
2013-05-13 08:14:00,47.7,35.7,30.11,SSW,201,0.7,3.0,63,0.00,NA,NA,0.00,WeatherLink_script,2013-05-13 12:14:00,
2013-05-13 08:19:00,48.2,36.2,30.10,SSW,202,0.4,3.0,63,0.00,NA,NA,0.00,WeatherLink_script,2013-05-13 12:19:00,
2013-05-13 08:24:00,48.5,35.7,30.11,SSW,201,0.5,1.0,61,0.00,NA,NA,0.00,WeatherLink_script,2013-05-13 12:24:00,
2013-05-13 08:29:00,48.9,35.6,30.11,SSW,202,0.6,2.0,60,0.00,NA,NA,0.00,WeatherLink_script,2013-05-13 12:29:00,
2013-05-13 08:34:00,49.2,35.5,30.11,SSW,197,0.8,2.0,59,0.00,NA,NA,0.00,WeatherLink_script,2013-05-13 12:34:00,
2013-05-13 08:39:00,49.4,35.3,30.11,SSW,198,0.2,1.0,58,0.00,NA,NA,0.00,WeatherLink_script,2013-05-13 12:39:00,
2013-05-13 08:44:00,49.8,34.7,30.11,SSW,198,1.2,3.0,56,0.00,NA,NA,0.00,WeatherLink_script,2013-05-13 12:44:00,
2013-05-13 08:49:00,49.9,35.7,30.11,West,274,1.3,3.0,58,0.00,NA,NA,0.00,WeatherLink_script,2013-05-13 12:49:00,
2013-05-13 08:54:00,50.3,34.7,30.11,WSW,254,1.3,3.0,55,0.00,NA,NA,0.00,WeatherLink_script,2013-05-13 12:54:00,
2013-05-13 08:59:00,50.5,34.5,30.11,South,175,2.0,4.0,54,0.00,NA,NA,0.00,WeatherLink_script,2013-05-13 12:59:00,
2013-05-13 09:04:00,50.8,33.3,30.11,SW,217,1.7,4.0,51,0.00,NA,NA,0.00,WeatherLink_script,2013-05-13 13:04:00,
2013-05-13 09:09:00,51.5,34.5,30.11,SW,231,0.5,2.0,52,0.00,NA,NA,0.00,WeatherLink_script,2013-05-13 13:09:00,
2013-05-13 09:14:00,52.1,35.5,30.12,WNW,291,1.4,2.0,53,0.00,NA,NA,0.00,WeatherLink_script,2013-05-13 13:14:00,
2013-05-13 09:19:00,52.9,34.3,30.12,WSW,242,0.3,2.0,49,0.00,NA,NA,0.00,WeatherLink_script,2013-05-13 13:19:00,
2013-05-13 09:24:00,53.4,32.0,30.12,WSW,242,0.6,1.0,44,0.00,NA,NA,0.00,WeatherLink_script,2013-05-13 13:24:00,
2013-05-13 09:29:00,54.0,34.7,30.12,NW,317,1.5,3.0,48,0.00,NA,NA,0.00,WeatherLink_script,2013-05-13 13:29:00,
2013-05-13 09:34:00,54.6,33.1,30.12,WSW,241,2.5,5.0,44,0.00,NA,NA,0.00,WeatherLink_script,2013-05-13 13:34:00,
2013-05-13 09:39:00,54.7,32.6,30.11,SSW,213,5.1,8.0,43,0.00,NA,NA,0.00,WeatherLink_script,2013-05-13 13:39:00,
2013-05-13 09:44:00,54.9,33.4,30.12,West,273,0.6,2.0,44,0.00,NA,NA,0.00,WeatherLink_script,2013-05-13 13:44:00,
2013-05-13 09:49:00,55.2,32.5,30.12,WNW,286,1.2,2.0,42,0.00,NA,NA,0.00,WeatherLink_script,2013-05-13 13:49:00,
2013-05-13 09:54:00,55.7,34.1,30.12,SW,234,1.3,3.0,44,0.00,NA,NA,0.00,WeatherLink_script,2013-05-13 13:54:00,
2013-05-13 09:59:00,56.1,31.5,30.12,SW,232,1.0,2.0,39,0.00,NA,NA,0.00,WeatherLink_script,2013-05-13 13:59:00,
2013-05-13 10:04:00,56.1,32.1,30.12,NW,306,1.8,3.0,40,0.00,NA,NA,0.00,WeatherLink_script,2013-05-13 14:04:00,
2013-05-13 10:09:00,55.8,35.4,30.12,NW,307,0.9,2.0,46,0.00,NA,NA,0.00,WeatherLink_script,2013-05-13 14:09:00,
2013-05-13 10:14:00,55.6,31.7,30.12,NNW,333,2.3,3.0,40,0.00,NA,NA,0.00,WeatherLink_script,2013-05-13 14:14:00,
2013-05-13 10:19:00,55.2,33.7,30.12,West,262,2.0,5.0,44,0.00,NA,NA,0.00,WeatherLink_script,2013-05-13 14:19:00,
2013-05-13 10:24:00,55.0,34.0,30.13,WSW,240,3.0,5.0,45,0.00,NA,NA,0.00,WeatherLink_script,2013-05-13 14:24:00,
2013-05-13 10:29:00,54.7,31.5,30.13,West,268,1.5,3.0,41,0.00,NA,NA,0.00,WeatherLink_script,2013-05-13 14:29:00,
2013-05-13 10:34:00,54.3,32.9,30.12,West,268,1.2,2.0,44,0.00,NA,NA,0.00,WeatherLink_script,2013-05-13 14:34:00,
2013-05-13 10:39:00,54.3,32.8,30.12,WNW,297,1.6,3.0,44,0.00,NA,NA,0.00,WeatherLink_script,2013-05-13 14:39:00,
2013-05-13 10:44:00,54.0,32.0,30.13,NW,309,0.4,1.0,43,0.00,NA,NA,0.00,WeatherLink_script,2013-05-13 14:44:00,
2013-05-13 10:49:00,53.8,31.3,30.13,SW,216,1.0,4.0,42,0.00,NA,NA,0.00,WeatherLink_script,2013-05-13 14:49:00,
2013-05-13 10:54:00,53.4,31.5,30.13,NNW,334,1.5,3.0,43,0.00,NA,NA,0.00,WeatherLink_script,2013-05-13 14:54:00,
2013-05-13 10:59:00,53.1,31.2,30.13,NNE,31,2.2,5.0,43,0.00,NA,NA,0.00,WeatherLink_script,2013-05-13 14:59:00,
2013-05-13 11:04:00,52.9,32.7,30.13,WNW,296,0.8,3.0,46,0.00,NA,NA,0.00,WeatherLink_script,2013-05-13 15:04:00,
2013-05-13 11:09:00,52.9,32.1,30.13,NNW,329,1.1,3.0,45,0.00,NA,NA,0.00,WeatherLink_script,2013-05-13 15:09:00,
2013-05-13 11:14:00,53.0,34.4,30.13,North,357,0.8,3.0,49,0.00,NA,NA,0.00,WeatherLink_script,2013-05-13 15:14:00,
2013-05-13 11:19:00,53.3,35.6,30.13,ENE,71,0.4,1.0,51,0.00,NA,NA,0.00,WeatherLink_script,2013-05-13 15:19:00,
2013-05-13 11:24:00,54.4,34.6,30.13,NW,318,0.7,2.0,47,0.00,NA,NA,0.00,WeatherLink_script,2013-05-13 15:24:00,
2013-05-13 11:29:00,55.0,34.6,30.13,SSW,195,2.1,5.0,46,0.00,NA,NA,0.00,WeatherLink_script,2013-05-13 15:29:00,
2013-05-13 11:34:00,55.3,34.9,30.13,WSW,243,1.0,3.0,46,0.00,NA,NA,0.00,WeatherLink_script,2013-05-13 15:34:00,
2013-05-13 11:39:00,55.3,32.6,30.13,WNW,295,1.3,2.0,42,0.00,NA,NA,0.00,WeatherLink_script,2013-05-13 15:39:00,
2013-05-13 11:44:00,54.7,33.8,30.13,NW,312,1.5,3.0,45,0.00,NA,NA,0.00,WeatherLink_script,2013-05-13 15:44:00,
2013-05-13 11:49:00,54.5,34.7,30.13,ESE,114,2.0,4.0,47,0.00,NA,NA,0.00,WeatherLink_script,2013-05-13 15:49:00,
2013-05-13 11:54:00,54.2,33.9,30.13,ENE,76,1.1,3.0,46,0.00,NA,NA,0.00,WeatherLink_script,2013-05-13 15:54:00,
2013-05-13 11:59:00,54.2,34.9,30.13,NNE,33,1.9,4.0,48,0.00,NA,NA,0.00,WeatherLink_script,2013-05-13 15:59:00,
2013-05-13 12:04:00,54.2,32.8,30.13,West,278,1.3,3.0,44,0.00,NA,NA,0.00,WeatherLink_script,2013-05-13 16:04:00,
2013-05-13 12:09:00,54.5,35.8,30.13,West,264,1.6,4.0,49,0.00,NA,NA,0.00,WeatherLink_script,2013-05-13 16:09:00,
2013-05-13 12:14:00,54.5,33.0,30.13,WSW,251,2.0,3.0,44,0.00,NA,NA,0.00,WeatherLink_script,2013-05-13 16:14:00,
2013-05-13 12:19:00,54.3,32.9,30.12,North,359,1.2,2.0,44,0.00,NA,NA,0.00,WeatherLink_script,2013-05-13 16:19:00,
2013-05-13 12:24:00,54.6,34.8,30.12,North,359,0.3,2.0,47,0.00,NA,NA,0.00,WeatherLink_script,2013-05-13 16:24:00,
2013-05-13 12:29:00,54.7,35.4,30.12,NNE,30,1.3,3.0,48,0.00,NA,NA,0.00,WeatherLink_script,2013-05-13 16:29:00,
2013-05-13 12:34:00,54.9,35.1,30.12,NW,317,0.7,2.0,47,0.00,NA,NA,0.00,WeatherLink_script,2013-05-13 16:34:00,
2013-05-13 12:39:00,55.3,32.6,30.12,NNE,16,3.1,4.0,42,0.00,NA,NA,0.00,WeatherLink_script,2013-05-13 16:39:00,
2013-05-13 12:44:00,55.6,35.1,30.11,North,357,2.7,4.0,46,0.00,NA,NA,0.00,WeatherLink_script,2013-05-13 16:44:00,
2013-05-13 12:49:00,55.6,33.5,30.11,SW,236,1.2,3.0,43,0.00,NA,NA,0.00,WeatherLink_script,2013-05-13 16:49:00,
2013-05-13 12:54:00,56.4,34.8,30.11,North,2,1.7,3.0,44,0.00,NA,NA,0.00,WeatherLink_script,2013-05-13 16:54:00,
2013-05-13 12:59:00,56.6,36.0,30.11,WNW,299,2.1,4.0,46,0.00,NA,NA,0.00,WeatherLink_script,2013-05-13 16:59:00,
2013-05-13 13:04:00,57.4,34.5,30.10,WNW,287,3.4,7.0,42,0.00,NA,NA,0.00,WeatherLink_script,2013-05-13 17:04:00,
2013-05-13 13:09:00,57.9,35.5,30.11,NNW,344,3.5,9.0,43,0.00,NA,NA,0.00,WeatherLink_script,2013-05-13 17:09:00,
2013-05-13 13:14:00,58.0,33.8,30.10,WNW,288,2.1,4.0,40,0.00,NA,NA,0.00,WeatherLink_script,2013-05-13 17:14:00,
2013-05-13 13:19:00,58.2,34.0,30.10,West,275,5.3,8.0,40,0.00,NA,NA,0.00,WeatherLink_script,2013-05-13 17:19:00,
2013-05-13 13:24:00,58.2,33.4,30.10,SW,234,2.3,4.0,39,0.00,NA,NA,0.00,WeatherLink_script,2013-05-13 17:24:00,
2013-05-13 13:30:00,58.5,31.6,30.09,WSW,238,1.9,5.0,36,0.00,NA,NA,0.00,WeatherLink_script,2013-05-13 17:30:00,
2013-05-13 13:35:00,58.8,35.1,30.09,West,273,2.2,4.0,41,0.00,NA,NA,0.00,WeatherLink_script,2013-05-13 17:35:00,
2013-05-13 13:40:00,58.9,33.3,30.09,WSW,251,1.7,3.0,38,0.00,NA,NA,0.00,WeatherLink_script,2013-05-13 17:40:00,
2013-05-13 13:45:00,58.8,33.3,30.08,SSW,203,3.5,5.0,38,0.00,NA,NA,0.00,WeatherLink_script,2013-05-13 17:45:00,
2013-05-13 13:50:00,58.5,34.3,30.08,West,260,4.0,5.0,40,0.00,NA,NA,0.00,WeatherLink_script,2013-05-13 17:50:00,
2013-05-13 13:55:00,58.0,31.2,30.08,WSW,241,3.1,5.0,36,0.00,NA,NA,0.00,WeatherLink_script,2013-05-13 17:55:00,
2013-05-13 14:00:00,57.6,32.8,30.08,SW,227,4.5,8.0,39,0.00,NA,NA,0.00,WeatherLink_script,2013-05-13 18:00:00,
2013-05-13 14:05:00,57.4,32.6,30.08,NNW,339,2.8,6.0,39,0.00,NA,NA,0.00,WeatherLink_script,2013-05-13 18:05:00,
2013-05-13 14:10:00,57.3,33.2,30.08,SW,234,3.2,4.0,40,0.00,NA,NA,0.00,WeatherLink_script,2013-05-13 18:10:00,
2013-05-13 14:15:00,57.4,33.3,30.08,WSW,255,3.7,8.0,40,0.00,NA,NA,0.00,WeatherLink_script,2013-05-13 18:15:00,
2013-05-13 14:20:00,58.0,33.8,30.07,WNW,287,3.3,6.0,40,0.00,NA,NA,0.00,WeatherLink_script,2013-05-13 18:20:00,
2013-05-13 14:25:00,58.8,34.5,30.08,North,351,2.2,4.0,40,0.00,NA,NA,0.00,WeatherLink_script,2013-05-13 18:25:00,
2013-05-13 14:30:00,59.4,31.7,30.07,NNW,341,2.3,3.0,35,0.00,NA,NA,0.00,WeatherLink_script,2013-05-13 18:30:00,
2013-05-13 14:35:00,59.4,35.7,30.07,North,359,1.8,4.0,41,0.00,NA,NA,0.00,WeatherLink_script,2013-05-13 18:35:00,
2013-05-13 14:40:00,59.8,34.1,30.07,NW,309,2.5,5.0,38,0.00,NA,NA,0.00,WeatherLink_script,2013-05-13 18:40:00,
2013-05-13 14:45:00,60.6,32.8,30.06,NW,313,0.6,2.0,35,0.00,NA,NA,0.00,WeatherLink_script,2013-05-13 18:45:00,
2013-05-13 14:50:00,60.2,31.7,30.07,West,273,3.0,5.0,34,0.00,NA,NA,0.00,WeatherLink_script,2013-05-13 18:50:00,
2013-05-13 14:55:00,59.9,31.5,30.06,West,273,4.0,7.0,34,0.00,NA,NA,0.00,WeatherLink_script,2013-05-13 18:55:00,
2013-05-13 15:00:00,59.4,32.4,30.06,SW,227,2.2,4.0,36,0.00,NA,NA,0.00,WeatherLink_script,2013-05-13 19:00:00,
2013-05-13 15:05:00,59.1,29.3,30.06,West,272,2.8,6.0,32,0.00,NA,NA,0.00,WeatherLink_script,2013-05-13 19:05:00,
2013-05-13 15:10:00,58.6,32.4,30.06,NW,319,3.2,7.0,37,0.00,NA,NA,0.00,WeatherLink_script,2013-05-13 19:10:00,
2013-05-13 15:15:00,58.0,31.9,30.06,NNW,341,1.2,3.0,37,0.00,NA,NA,0.00,WeatherLink_script,2013-05-13 19:15:00,
2013-05-13 15:20:00,57.7,31.6,30.06,NNE,31,0.6,2.0,37,0.00,NA,NA,0.00,WeatherLink_script,2013-05-13 19:20:00,
2013-05-13 15:25:00,57.4,32.6,30.06,WNW,289,2.6,4.0,39,0.00,NA,NA,0.00,WeatherLink_script,2013-05-13 19:25:00,
2013-05-13 15:31:00,57.0,31.0,30.06,WNW,285,3.8,8.0,37,0.00,NA,NA,0.00,WeatherLink_script,2013-05-13 19:31:00,
2013-05-13 15:36:00,56.9,31.6,30.05,NNW,338,2.6,5.0,38,0.00,NA,NA,0.00,WeatherLink_script,2013-05-13 19:36:00,
2013-05-13 15:41:00,57.6,30.1,30.05,WSW,255,0.8,2.0,35,0.00,NA,NA,0.00,WeatherLink_script,2013-05-13 19:41:00,
2013-05-13 15:46:00,58.0,30.5,30.06,NW,305,1.8,3.0,35,0.00,NA,NA,0.00,WeatherLink_script,2013-05-13 19:46:00,
2013-05-13 15:51:00,58.0,31.9,30.05,NNW,332,2.3,5.0,37,0.00,NA,NA,0.00,WeatherLink_script,2013-05-13 19:51:00,
2013-05-13 15:56:00,58.0,31.2,30.05,WNW,283,4.4,7.0,36,0.00,NA,NA,0.00,WeatherLink_script,2013-05-13 19:56:00,
2013-05-13 16:01:00,58.1,29.9,30.05,WNW,287,3.6,6.0,34,0.00,NA,NA,0.00,WeatherLink_script,2013-05-13 20:01:00,
2013-05-13 16:06:00,58.4,30.9,30.05,NNW,338,0.7,2.0,35,0.00,NA,NA,0.00,WeatherLink_script,2013-05-13 20:06:00,
2013-05-13 16:11:00,58.8,32.6,30.05,NW,325,2.7,4.0,37,0.00,NA,NA,0.00,WeatherLink_script,2013-05-13 20:11:00,
2013-05-13 16:16:00,59.1,31.5,30.05,NNW,348,2.7,5.0,35,0.00,NA,NA,0.00,WeatherLink_script,2013-05-13 20:16:00,
2013-05-13 16:21:00,59.1,30.1,30.05,WNW,282,4.2,8.0,33,0.00,NA,NA,0.00,WeatherLink_script,2013-05-13 20:21:00,
2013-05-13 16:26:00,59.1,31.5,30.05,NNW,338,3.1,6.0,35,0.00,NA,NA,0.00,WeatherLink_script,2013-05-13 20:26:00,
2013-05-13 16:31:00,59.2,30.1,30.05,NNW,328,4.7,9.0,33,0.00,NA,NA,0.00,WeatherLink_script,2013-05-13 20:31:00,
2013-05-13 16:36:00,59.3,32.3,30.05,South,182,2.5,4.0,36,0.00,NA,NA,0.00,WeatherLink_script,2013-05-13 20:36:00,
2013-05-13 16:41:00,59.5,29.6,30.04,NNW,348,3.2,5.0,32,0.00,NA,NA,0.00,WeatherLink_script,2013-05-13 20:41:00,
2013-05-13 16:46:00,59.2,30.1,30.05,NW,318,3.1,4.0,33,0.00,NA,NA,0.00,WeatherLink_script,2013-05-13 20:46:00,
2013-05-13 16:51:00,58.8,32.6,30.04,NNW,346,1.7,3.0,37,0.00,NA,NA,0.00,WeatherLink_script,2013-05-13 20:51:00,
2013-05-13 16:56:00,58.5,30.2,30.04,North,349,2.0,3.0,34,0.00,NA,NA,0.00,WeatherLink_script,2013-05-13 20:56:00,
2013-05-13 17:01:00,58.3,29.3,30.04,North,6,1.5,3.0,33,0.00,NA,NA,0.00,WeatherLink_script,2013-05-13 21:01:00,
2013-05-13 17:06:00,58.5,31.6,30.05,NNE,16,2.4,5.0,36,0.00,NA,NA,0.00,WeatherLink_script,2013-05-13 21:06:00,
2013-05-13 17:11:00,58.8,33.9,30.05,East,82,1.5,3.0,39,0.00,NA,NA,0.00,WeatherLink_script,2013-05-13 21:11:00,
2013-05-13 17:16:00,58.9,32.0,30.05,NW,306,1.7,3.0,36,0.00,NA,NA,0.00,WeatherLink_script,2013-05-13 21:16:00,
2013-05-13 17:21:00,58.8,31.2,30.04,WNW,289,1.9,3.0,35,0.00,NA,NA,0.00,WeatherLink_script,2013-05-13 21:21:00,
2013-05-13 17:26:00,58.4,32.2,30.05,NW,304,3.6,5.0,37,0.00,NA,NA,0.00,WeatherLink_script,2013-05-13 21:26:00,
2013-05-13 17:31:00,57.9,33.1,30.05,NNW,337,2.6,4.0,39,0.00,NA,NA,0.00,WeatherLink_script,2013-05-13 21:31:00,
2013-05-13 17:36:00,57.6,32.2,30.05,West,261,2.7,4.0,38,0.00,NA,NA,0.00,WeatherLink_script,2013-05-13 21:36:00,
2013-05-13 17:41:00,57.2,32.5,30.05,WNW,298,2.1,3.0,39,0.00,NA,NA,0.00,WeatherLink_script,2013-05-13 21:41:00,
2013-05-13 17:46:00,56.8,30.1,30.06,NNW,339,1.1,2.0,36,0.00,NA,NA,0.00,WeatherLink_script,2013-05-13 21:46:00,
2013-05-13 17:51:00,56.5,30.5,30.05,NNW,339,0.8,3.0,37,0.00,NA,NA,0.00,WeatherLink_script,2013-05-13 21:51:00,
2013-05-13 17:56:00,56.1,32.7,30.05,NW,325,2.3,5.0,41,0.00,NA,NA,0.00,WeatherLink_script,2013-05-13 21:56:00,
2013-05-13 18:01:00,55.8,31.2,30.06,NW,304,4.4,6.0,39,0.00,NA,NA,0.00,WeatherLink_script,2013-05-13 22:01:00,
2013-05-13 18:06:00,55.3,33.2,30.06,WSW,241,2.2,5.0,43,0.00,NA,NA,0.00,WeatherLink_script,2013-05-13 22:06:00,
2013-05-13 18:11:00,55.2,33.1,30.06,WSW,255,1.5,3.0,43,0.00,NA,NA,0.00,WeatherLink_script,2013-05-13 22:11:00,
2013-05-13 18:16:00,55.2,33.1,30.05,SW,219,2.5,3.0,43,0.00,NA,NA,0.00,WeatherLink_script,2013-05-13 22:16:00,
2013-05-13 18:21:00,55.5,32.2,30.05,West,277,0.9,3.0,41,0.00,NA,NA,0.00,WeatherLink_script,2013-05-13 22:21:00,
2013-05-13 18:26:00,55.8,31.8,30.05,West,281,1.2,3.0,40,0.00,NA,NA,0.00,WeatherLink_script,2013-05-13 22:26:00,
2013-05-13 18:31:00,55.8,33.1,30.05,North,10,0.6,2.0,42,0.00,NA,NA,0.00,WeatherLink_script,2013-05-13 22:31:00,
2013-05-13 18:36:00,55.6,32.9,30.05,North,9,0.4,2.0,42,0.00,NA,NA,0.00,WeatherLink_script,2013-05-13 22:36:00,
2013-05-13 18:41:00,55.0,34.1,30.06,North,7,0.0,0.0,45,0.00,NA,NA,0.00,WeatherLink_script,2013-05-13 22:41:00,
2013-05-13 18:46:00,54.7,33.8,30.06,North,7,0.4,1.0,45,0.00,NA,NA,0.00,WeatherLink_script,2013-05-13 22:46:00,
2013-05-13 18:51:00,54.4,34.6,30.06,North,8,0.2,1.0,47,0.00,NA,NA,0.00,WeatherLink_script,2013-05-13 22:51:00,
2013-05-13 18:56:00,54.4,34.0,30.06,North,10,0.9,2.0,46,0.00,NA,NA,0.00,WeatherLink_script,2013-05-13 22:56:00,
2013-05-13 19:01:00,54.4,34.6,30.07,NW,310,0.2,1.0,47,0.00,NA,NA,0.00,WeatherLink_script,2013-05-13 23:01:00,
2013-05-13 19:06:00,54.6,32.0,30.07,North,2,1.4,2.0,42,0.00,NA,NA,0.00,WeatherLink_script,2013-05-13 23:06:00,
2013-05-13 19:11:00,54.6,33.7,30.07,North,9,2.7,4.0,45,0.00,NA,NA,0.00,WeatherLink_script,2013-05-13 23:11:00,
2013-05-13 19:16:00,54.3,32.3,30.07,North,350,1.3,3.0,43,0.00,NA,NA,0.00,WeatherLink_script,2013-05-13 23:16:00,
2013-05-13 19:21:00,54.2,33.3,30.07,NNW,339,1.1,3.0,45,0.00,NA,NA,0.00,WeatherLink_script,2013-05-13 23:21:00,
2013-05-13 19:26:00,54.0,33.1,30.07,North,0,1.3,3.0,45,0.00,NA,NA,0.00,WeatherLink_script,2013-05-13 23:26:00,
2013-05-13 19:31:00,53.7,32.9,30.07,West,281,1.2,2.0,45,0.00,NA,NA,0.00,WeatherLink_script,2013-05-13 23:31:00,
2013-05-13 19:36:00,53.5,33.8,30.07,NNW,346,1.0,3.0,47,0.00,NA,NA,0.00,WeatherLink_script,2013-05-13 23:36:00,
2013-05-13 19:41:00,53.1,33.4,30.07,WNW,284,0.9,2.0,47,0.00,NA,NA,0.00,WeatherLink_script,2013-05-13 23:41:00,
2013-05-13 19:46:00,52.7,31.9,30.07,NW,326,0.7,2.0,45,0.00,NA,NA,0.00,WeatherLink_script,2013-05-13 23:46:00,
2013-05-13 19:51:00,52.4,33.3,30.07,NNW,336,0.5,2.0,48,0.00,NA,NA,0.00,WeatherLink_script,2013-05-13 23:51:00,
2013-05-13 19:56:00,51.8,32.3,30.07,North,356,1.7,3.0,47,0.00,NA,NA,0.00,WeatherLink_script,2013-05-13 23:56:00,
2013-05-13 20:01:00,51.6,34.1,30.08,NW,322,1.3,3.0,51,0.00,NA,NA,0.00,WeatherLink_script,2013-05-14 00:01:00,
2013-05-13 20:06:00,51.2,32.7,30.08,NNW,348,1.5,3.0,49,0.00,NA,NA,0.00,WeatherLink_script,2013-05-14 00:06:00,
2013-05-13 20:11:00,51.1,32.1,30.08,NNE,12,1.7,3.0,48,0.00,NA,NA,0.00,WeatherLink_script,2013-05-14 00:11:00,
2013-05-13 20:16:00,50.8,32.3,30.09,North,356,1.5,2.0,49,0.00,NA,NA,0.00,WeatherLink_script,2013-05-14 00:16:00,
2013-05-13 20:21:00,50.6,33.1,30.09,North,351,2.7,7.0,51,0.00,NA,NA,0.00,WeatherLink_script,2013-05-14 00:21:00,
2013-05-13 20:26:00,50.3,31.9,30.09,West,277,2.4,4.0,49,0.00,NA,NA,0.00,WeatherLink_script,2013-05-14 00:26:00,
2013-05-13 20:31:00,50.1,32.7,30.09,NNW,346,0.4,2.0,51,0.00,NA,NA,0.00,WeatherLink_script,2013-05-14 00:31:00,
2013-05-13 20:36:00,49.9,32.5,30.10,NNW,346,0.8,2.0,51,0.00,NA,NA,0.00,WeatherLink_script,2013-05-14 00:36:00,
2013-05-13 20:41:00,49.8,31.9,30.10,North,2,1.3,3.0,50,0.00,NA,NA,0.00,WeatherLink_script,2013-05-14 00:41:00,
2013-05-13 20:46:00,49.7,31.8,30.10,NNW,344,2.1,4.0,50,0.00,NA,NA,0.00,WeatherLink_script,2013-05-14 00:46:00,
2013-05-13 20:51:00,49.8,31.9,30.10,NE,37,2.0,3.0,50,0.00,NA,NA,0.00,WeatherLink_script,2013-05-14 00:51:00,
2013-05-13 20:56:00,49.6,31.7,30.10,NNW,331,0.8,2.0,50,0.00,NA,NA,0.00,WeatherLink_script,2013-05-14 00:56:00,
2013-05-13 21:01:00,49.5,31.1,30.11,North,0,0.8,1.0,49,0.00,NA,NA,0.00,WeatherLink_script,2013-05-14 01:01:00,
2013-05-13 21:06:00,49.3,32.0,30.11,North,0,0.8,2.0,51,0.00,NA,NA,0.00,WeatherLink_script,2013-05-14 01:06:00,
2013-05-13 21:11:00,49.2,30.9,30.12,North,0,0.4,1.0,49,0.00,NA,NA,0.00,WeatherLink_script,2013-05-14 01:11:00,
2013-05-13 21:16:00,49.0,31.2,30.12,North,0,0.6,2.0,50,0.00,NA,NA,0.00,WeatherLink_script,2013-05-14 01:16:00,
2013-05-13 21:21:00,49.0,31.7,30.12,North,2,1.0,2.0,51,0.00,NA,NA,0.00,WeatherLink_script,2013-05-14 01:21:00,
2013-05-13 21:26:00,48.9,32.5,30.13,North,359,0.5,2.0,53,0.00,NA,NA,0.00,WeatherLink_script,2013-05-14 01:26:00,
2013-05-13 21:31:00,48.7,31.9,30.13,North,0,0.1,1.0,52,0.00,NA,NA,0.00,WeatherLink_script,2013-05-14 01:31:00,
2013-05-13 21:36:00,48.6,32.7,30.13,North,359,0.4,1.0,54,0.00,NA,NA,0.00,WeatherLink_script,2013-05-14 01:36:00,
2013-05-13 21:41:00,48.5,31.7,30.14,NNW,333,0.8,2.0,52,0.00,NA,NA,0.00,WeatherLink_script,2013-05-14 01:41:00,
2013-05-13 21:46:00,48.2,31.9,30.14,NE,35,1.8,3.0,53,0.00,NA,NA,0.00,WeatherLink_script,2013-05-14 01:46:00,
2013-05-13 21:51:00,48.2,32.3,30.14,NNW,338,1.3,3.0,54,0.00,NA,NA,0.00,WeatherLink_script,2013-05-14 01:51:00,
2013-05-13 21:56:00,48.0,32.2,30.14,NNW,327,2.0,4.0,54,0.00,NA,NA,0.00,WeatherLink_script,2013-05-14 01:56:00,
2013-05-13 22:01:00,47.9,32.1,30.14,North,357,1.5,3.0,54,0.00,NA,NA,0.00,WeatherLink_script,2013-05-14 02:01:00,
2013-05-13 22:06:00,47.8,31.5,30.15,WNW,301,0.8,2.0,53,0.00,NA,NA,0.00,WeatherLink_script,2013-05-14 02:06:00,
2013-05-13 22:11:00,47.7,31.9,30.15,NW,304,1.5,4.0,54,0.00,NA,NA,0.00,WeatherLink_script,2013-05-14 02:11:00,
2013-05-13 22:16:00,47.5,32.2,30.16,NW,321,1.2,3.0,55,0.00,NA,NA,0.00,WeatherLink_script,2013-05-14 02:16:00,
2013-05-13 22:21:00,47.4,32.0,30.16,North,3,1.5,3.0,55,0.00,NA,NA,0.00,WeatherLink_script,2013-05-14 02:21:00,
2013-05-13 22:26:00,47.2,31.9,30.16,WNW,282,0.8,2.0,55,0.00,NA,NA,0.00,WeatherLink_script,2013-05-14 02:26:00,
2013-05-13 22:31:00,47.1,31.8,30.16,WNW,284,0.2,1.0,55,0.00,NA,NA,0.00,WeatherLink_script,2013-05-14 02:31:00,
2013-05-13 22:36:00,47.0,32.1,30.16,WNW,284,0.8,2.0,56,0.00,NA,NA,0.00,WeatherLink_script,2013-05-14 02:36:00,
2013-05-13 22:41:00,46.8,32.3,30.16,WNW,284,1.3,2.0,57,0.00,NA,NA,0.00,WeatherLink_script,2013-05-14 02:41:00,
2013-05-13 22:46:00,46.7,32.7,30.16,WNW,282,1.1,3.0,58,0.00,NA,NA,0.00,WeatherLink_script,2013-05-14 02:46:00,
2013-05-13 22:51:00,46.5,32.9,30.16,WNW,282,1.0,3.0,59,0.00,NA,NA,0.00,WeatherLink_script,2013-05-14 02:51:00,
2013-05-13 22:56:00,46.3,32.3,30.17,WNW,282,0.3,1.0,58,0.00,NA,NA,0.00,WeatherLink_script,2013-05-14 02:56:00,
2013-05-13 23:01:00,46.2,34.3,30.17,WNW,282,0.6,2.0,63,0.00,NA,NA,0.00,WeatherLink_script,2013-05-14 03:01:00,
2013-05-13 23:06:00,46.0,32.9,30.17,WNW,282,0.3,1.0,60,0.00,NA,NA,0.00,WeatherLink_script,2013-05-14 03:06:00,
2013-05-13 23:11:00,45.8,31.4,30.17,NW,311,0.7,1.0,57,0.00,NA,NA,0.00,WeatherLink_script,2013-05-14 03:11:00,
2013-05-13 23:16:00,45.5,31.2,30.17,NW,310,0.4,1.0,57,0.00,NA,NA,0.00,WeatherLink_script,2013-05-14 03:16:00,
2013-05-13 23:21:00,45.5,31.2,30.17,NW,309,0.1,1.0,57,0.00,NA,NA,0.00,WeatherLink_script,2013-05-14 03:21:00,
2013-05-13 23:26:00,45.4,31.1,30.17,NW,308,0.2,1.0,57,0.00,NA,NA,0.00,WeatherLink_script,2013-05-14 03:26:00,
2013-05-13 23:31:00,45.4,31.5,30.17,NW,308,0.4,1.0,58,0.00,NA,NA,0.00,WeatherLink_script,2013-05-14 03:31:00,
2013-05-13 23:36:00,45.4,31.5,30.17,NW,309,0.4,2.0,58,0.00,NA,NA,0.00,WeatherLink_script,2013-05-14 03:36:00,
2013-05-13 23:41:00,45.4,31.9,30.16,North,359,0.1,1.0,59,0.00,NA,NA,0.00,WeatherLink_script,2013-05-14 03:41:00,
2013-05-13 23:46:00,45.4,31.9,30.17,North,356,0.5,2.0,59,0.00,NA,NA,0.00,WeatherLink_script,2013-05-14 03:46:00,
2013-05-13 23:51:00,45.4,32.3,30.17,NNW,339,0.3,1.0,60,0.00,NA,NA,0.00,WeatherLink_script,2013-05-14 03:51:00,
2013-05-13 23:56:00,45.2,31.3,30.17,NE,41,1.8,5.0,58,0.00,NA,NA,0.00,WeatherLink_script,2013-05-14 03:56:00,